createdAt,value
2023-02-15T00:00:30.854Z,50.98
2023-02-15T00:01:15.487Z,52.98
2023-02-15T00:02:00.527Z,48.98
2023-02-15T00:02:45.828Z,51.98
2023-02-15T00:03:30.774Z,51.97
2023-02-15T00:04:15.468Z,50.97
2023-02-15T00:05:00.378Z,52.96
2023-02-15T00:05:46.131Z,53.98
2023-02-15T00:06:30.781Z,52.98
2023-02-15T00:07:15.739Z,52.98
2023-02-15T00:08:00.974Z,52.98
2023-02-15T00:08:46.252Z,51.98
2023-02-15T00:09:30.488Z,48.98
2023-02-15T00:10:16.056Z,49.97
2023-02-15T00:11:01.191Z,51.98
2023-02-15T00:11:46.620Z,50.97
2023-02-15T00:12:30.944Z,51.98
2023-02-15T00:13:16.112Z,51.98
2023-02-15T00:14:00.933Z,52.98
2023-02-15T00:14:46.551Z,52.97
2023-02-15T00:15:31.253Z,51.98
2023-02-15T00:16:16.281Z,51.97
2023-02-15T00:17:01.261Z,54.98
2023-02-15T00:17:46.750Z,54.98
2023-02-15T00:18:31.625Z,53.98
2023-02-15T00:19:16.238Z,52.98
2023-02-15T00:20:01.753Z,51.98
2023-02-15T00:20:47.486Z,51.98
2023-02-15T00:21:31.859Z,52.98
2023-02-15T00:22:16.866Z,53.98
2023-02-15T00:23:02.037Z,51.98
2023-02-15T00:23:47.185Z,54.98
2023-02-15T00:24:32.070Z,53.98
2023-02-15T00:25:18.156Z,55.98
2023-02-15T00:26:02.252Z,55.98
2023-02-15T00:26:46.899Z,54.98
2023-02-15T00:27:32.047Z,53.97
2023-02-15T00:28:16.974Z,54.98
2023-02-15T00:29:02.407Z,54.98
2023-02-15T00:29:47.239Z,53.98
2023-02-15T00:30:32.418Z,54.98
2023-02-15T00:31:17.435Z,55.98
2023-02-15T00:32:02.459Z,55.98
2023-02-15T00:32:47.453Z,55.98
2023-02-15T00:33:32.502Z,56.98
2023-02-15T00:34:17.311Z,53.98
2023-02-15T00:35:02.466Z,50.98
2023-02-15T00:35:47.617Z,52.98
2023-02-15T00:36:32.334Z,54.98
2023-02-15T00:37:17.788Z,52.98
2023-02-15T00:38:02.473Z,53.98
2023-02-15T00:38:48.044Z,53.98
2023-02-15T00:39:32.974Z,52.98
2023-02-15T00:40:18.113Z,51.98
2023-02-15T00:41:02.975Z,48.98
2023-02-15T00:41:47.964Z,47.98
2023-02-15T00:42:33.147Z,46.98
2023-02-15T00:43:18.144Z,47.98
2023-02-15T00:44:02.982Z,48.98
2023-02-15T00:44:48.451Z,49.98
2023-02-15T00:45:32.930Z,49.98
2023-02-15T00:46:18.613Z,48.98
2023-02-15T00:47:03.329Z,47.98
2023-02-15T00:47:48.197Z,48.98
2023-02-15T00:48:33.934Z,48.98
2023-02-15T00:49:18.837Z,48.98
2023-02-15T00:50:03.553Z,46.98
2023-02-15T00:50:48.489Z,47.98
2023-02-15T00:51:33.900Z,47.98
2023-02-15T00:52:18.707Z,48.98
2023-02-15T00:53:03.558Z,48.98
2023-02-15T00:53:48.995Z,47.98
2023-02-15T00:54:33.850Z,48.98
2023-02-15T00:55:21.218Z,47.98
2023-02-15T00:56:04.227Z,47.97
2023-02-15T00:56:49.150Z,48.98
2023-02-15T00:57:33.409Z,47.98
2023-02-15T00:58:19.240Z,47.98
2023-02-15T00:59:04.329Z,49.99
2023-02-15T00:59:49.081Z,48.99
2023-02-15T01:00:34.874Z,47.99
2023-02-15T01:01:19.188Z,48.99
2023-02-15T01:02:04.435Z,47.99
2023-02-15T01:02:49.500Z,47.99
2023-02-15T01:03:35.047Z,47.99
2023-02-15T01:04:19.654Z,46.99
2023-02-15T01:05:04.618Z,47.99
2023-02-15T01:05:49.716Z,46.99
2023-02-15T01:06:34.838Z,48.99
2023-02-15T01:07:19.654Z,47.95
2023-02-15T01:08:04.740Z,48.99
2023-02-15T01:08:49.540Z,48.99
2023-02-15T01:09:35.116Z,48.99
2023-02-15T01:10:19.972Z,49.99
2023-02-15T01:11:04.920Z,48.99
2023-02-15T01:11:50.127Z,48.99
2023-02-15T01:12:34.775Z,48.99
2023-02-15T01:13:20.427Z,49.99
2023-02-15T01:14:05.116Z,48.99
2023-02-15T01:14:50.442Z,48.99
2023-02-15T01:15:35.324Z,48.99
2023-02-15T01:16:20.209Z,48.99
2023-02-15T01:17:05.279Z,48.98
2023-02-15T01:17:50.325Z,48.99
2023-02-15T01:18:35.299Z,48.99
2023-02-15T01:19:21.474Z,49.99
2023-02-15T01:20:05.599Z,47.99
2023-02-15T01:20:50.784Z,47.99
2023-02-15T01:21:36.652Z,47.99
2023-02-15T01:22:20.659Z,23.99
2023-02-15T01:23:05.613Z,37.98
2023-02-15T01:23:51.083Z,37.98
2023-02-15T01:24:35.903Z,36.99
2023-02-15T01:25:20.901Z,44.99
2023-02-15T01:26:05.710Z,43.99
2023-02-15T01:26:50.903Z,40.99
2023-02-15T01:27:36.054Z,42.99
2023-02-15T01:28:20.937Z,42.99
2023-02-15T01:29:05.965Z,43.99
2023-02-15T01:29:51.359Z,42.99
2023-02-15T01:30:36.440Z,41.99
2023-02-15T01:31:21.358Z,40.99
2023-02-15T01:32:06.383Z,39.99
2023-02-15T01:32:51.355Z,40.99
2023-02-15T01:33:36.502Z,41.97
2023-02-15T01:34:21.364Z,41.99
2023-02-15T01:35:06.708Z,41.99
2023-02-15T01:35:51.505Z,41.99
2023-02-15T01:36:36.416Z,39.99
2023-02-15T01:37:21.863Z,39.99
2023-02-15T01:38:06.927Z,27.00
2023-02-15T01:38:52.248Z,27.00
2023-02-15T01:39:37.019Z,47.99
2023-02-15T01:40:21.936Z,46.99
2023-02-15T01:41:06.967Z,46.99
2023-02-15T01:41:52.150Z,48.99
2023-02-15T01:42:36.751Z,51.99
2023-02-15T01:43:22.340Z,50.99
2023-02-15T01:44:07.294Z,52.99
2023-02-15T01:44:52.256Z,53.99
2023-02-15T01:45:37.304Z,53.99
2023-02-15T01:46:22.638Z,53.99
2023-02-15T01:47:07.368Z,52.99
2023-02-15T01:47:52.691Z,54.99
2023-02-15T01:48:37.327Z,53.98
2023-02-15T01:49:22.588Z,52.99
2023-02-15T01:50:07.799Z,51.99
2023-02-15T01:50:52.585Z,49.99
2023-02-15T01:51:37.943Z,49.99
2023-02-15T01:52:23.182Z,51.99
2023-02-15T01:53:07.979Z,50.99
2023-02-15T01:54:38.432Z,51.99
2023-02-15T01:55:23.223Z,38.99
2023-02-15T01:56:08.405Z,34.99
2023-02-15T01:56:52.940Z,30.99
2023-02-15T01:57:37.795Z,27.99
2023-02-15T01:58:22.963Z,44.99
2023-02-15T01:59:08.212Z,41.99
2023-02-15T01:59:53.376Z,42.99
2023-02-15T02:00:38.255Z,30.99
2023-02-15T02:01:23.484Z,46.99
2023-02-15T02:02:08.586Z,44.99
2023-02-15T02:02:53.635Z,41.99
2023-02-15T02:03:38.455Z,43.99
2023-02-15T02:04:24.090Z,42.99
2023-02-15T02:05:10.432Z,42.99
2023-02-15T02:05:53.617Z,46.99
2023-02-15T02:06:38.660Z,46.99
2023-02-15T02:07:23.738Z,40.99
2023-02-15T02:08:08.928Z,46.99
2023-02-15T02:08:53.951Z,45.99
2023-02-15T02:09:38.804Z,50.99
2023-02-15T02:10:24.168Z,44.99
2023-02-15T02:11:09.117Z,43.99
2023-02-15T02:11:54.581Z,43.99
2023-02-15T02:12:39.127Z,44.99
2023-02-15T02:13:24.309Z,45.99
2023-02-15T02:14:09.166Z,48.99
2023-02-15T02:14:54.605Z,45.99
2023-02-15T02:15:39.117Z,45.99
2023-02-15T02:16:24.355Z,45.99
2023-02-15T02:17:09.469Z,44.99
2023-02-15T02:17:54.940Z,43.99
2023-02-15T02:18:39.795Z,43.99
2023-02-15T02:19:24.637Z,41.99
2023-02-15T02:20:10.368Z,45.99
2023-02-15T02:20:54.817Z,46.99
2023-02-15T02:21:40.058Z,47.99
2023-02-15T02:22:24.766Z,45.99
2023-02-15T02:23:09.932Z,45.99
2023-02-15T02:23:54.890Z,42.99
2023-02-15T02:24:40.422Z,42.99
2023-02-15T02:25:24.707Z,40.99
2023-02-15T02:26:10.360Z,40.99
2023-02-15T02:26:55.104Z,40.99
2023-02-15T02:27:40.591Z,42.99
2023-02-15T02:28:25.375Z,40.99
2023-02-15T02:29:10.331Z,40.99
2023-02-15T02:29:55.085Z,40.99
2023-02-15T02:30:40.793Z,38.99
2023-02-15T02:31:25.324Z,37.99
2023-02-15T02:32:10.634Z,37.99
2023-02-15T02:32:55.485Z,39.99
2023-02-15T02:33:40.812Z,38.99
2023-02-15T02:34:25.459Z,39.99
2023-02-15T02:35:10.533Z,44.99
2023-02-15T02:35:55.948Z,44.99
2023-02-15T02:36:41.003Z,47.99
2023-02-15T02:37:26.334Z,45.99
2023-02-15T02:38:10.852Z,44.99
2023-02-15T02:38:56.725Z,44.99
2023-02-15T02:39:41.260Z,42.99
2023-02-15T02:40:25.914Z,41.99
2023-02-15T02:41:11.370Z,41.99
2023-02-15T02:41:55.817Z,42.99
2023-02-15T02:42:42.616Z,42.99
2023-02-15T02:43:26.151Z,18.61
2023-02-15T02:44:11.842Z,48.99
2023-02-15T02:44:56.440Z,47.99
2023-02-15T02:45:41.224Z,47.99
2023-02-15T02:46:26.412Z,47.99
2023-02-15T02:47:11.414Z,47.99
2023-02-15T02:47:56.380Z,38.99
2023-02-15T02:48:41.470Z,37.99
2023-02-15T02:49:26.571Z,38.99
2023-02-15T02:50:11.506Z,39.99
2023-02-15T02:50:56.909Z,39.99
2023-02-15T02:51:41.854Z,39.99
2023-02-15T02:52:26.581Z,39.99
2023-02-15T02:53:11.751Z,39.99
2023-02-15T02:53:57.041Z,39.99
2023-02-15T02:54:41.879Z,39.99
2023-02-15T02:55:26.944Z,39.99
2023-02-15T02:56:11.957Z,45.99
2023-02-15T02:56:56.847Z,43.99
2023-02-15T02:57:42.424Z,43.99
2023-02-15T02:58:27.249Z,43.99
2023-02-15T02:59:12.217Z,43.99
2023-02-15T02:59:57.173Z,43.99
2023-02-15T03:00:42.434Z,43.99
2023-02-15T03:01:27.287Z,41.99
2023-02-15T03:02:12.336Z,41.99
2023-02-15T03:02:57.611Z,41.99
2023-02-15T03:03:42.868Z,41.99
2023-02-15T03:04:27.026Z,43.99
2023-02-15T03:05:13.015Z,43.99
2023-02-15T03:05:57.735Z,43.99
2023-02-15T03:06:42.811Z,43.99
2023-02-15T03:07:27.814Z,43.99
2023-02-15T03:08:12.791Z,43.99
2023-02-15T03:08:57.926Z,43.99
2023-02-15T03:09:43.314Z,43.99
2023-02-15T03:10:28.977Z,43.99
2023-02-15T03:11:12.550Z,43.99
2023-02-15T03:11:57.973Z,43.99
2023-02-15T03:12:42.993Z,43.99
2023-02-15T03:13:28.421Z,43.99
2023-02-15T03:14:12.838Z,45.99
2023-02-15T03:14:57.582Z,43.99
2023-02-15T03:15:42.808Z,45.99
2023-02-15T03:16:28.077Z,38.99
2023-02-15T03:17:13.019Z,40.99
2023-02-15T03:17:57.818Z,39.99
2023-02-15T03:18:43.691Z,39.99
2023-02-15T03:19:28.583Z,39.99
2023-02-15T03:20:13.578Z,37.99
2023-02-15T03:20:58.599Z,37.99
2023-02-15T03:21:43.810Z,37.99
2023-02-15T03:22:28.461Z,37.99
2023-02-15T03:23:13.624Z,37.99
2023-02-15T03:23:58.569Z,37.99
2023-02-15T03:24:43.935Z,37.99
2023-02-15T03:25:28.814Z,37.99
2023-02-15T03:26:14.019Z,37.99
2023-02-15T03:26:59.042Z,37.99
2023-02-15T03:27:43.864Z,37.99
2023-02-15T03:28:28.939Z,37.99
2023-02-15T03:29:13.961Z,37.99
2023-02-15T03:29:58.809Z,37.99
2023-02-15T03:30:44.387Z,37.99
2023-02-15T03:31:29.545Z,37.99
2023-02-15T03:32:14.308Z,37.99
2023-02-15T03:32:59.233Z,37.99
2023-02-15T03:33:44.773Z,37.99
2023-02-15T03:34:28.975Z,37.99
2023-02-15T03:35:14.620Z,37.99
2023-02-15T03:35:59.601Z,37.99
2023-02-15T03:36:44.851Z,37.99
2023-02-15T03:37:29.403Z,37.99
2023-02-15T03:38:14.495Z,37.99
2023-02-15T03:38:59.697Z,37.99
2023-02-15T03:39:44.602Z,37.99
2023-02-15T03:40:29.793Z,37.99
2023-02-15T03:41:14.496Z,37.99
2023-02-15T03:41:59.721Z,37.99
2023-02-15T03:42:45.018Z,37.99
2023-02-15T03:43:29.949Z,37.99
2023-02-15T03:44:14.909Z,37.99
2023-02-15T03:44:59.760Z,37.99
2023-02-15T03:45:45.114Z,37.99
2023-02-15T03:46:30.072Z,37.99
2023-02-15T03:47:15.148Z,37.99
2023-02-15T03:48:00.080Z,37.99
2023-02-15T03:48:44.929Z,1.23
2023-02-15T03:49:29.776Z,2.47
2023-02-15T03:50:15.035Z,2.47
2023-02-15T03:50:59.891Z,2.65
2023-02-15T03:51:48.134Z,2.65
2023-02-15T03:52:30.686Z,2.65
2023-02-15T03:53:15.668Z,1.70
2023-02-15T03:53:59.799Z,1.76
2023-02-15T03:54:45.613Z,1.76
2023-02-15T03:55:29.919Z,2.58
2023-02-15T03:56:14.875Z,1.76
2023-02-15T03:57:00.438Z,3.78
2023-02-15T03:57:45.705Z,2.71
2023-02-15T03:58:30.540Z,2.76
2023-02-15T03:59:15.734Z,10.87
2023-02-15T04:00:00.482Z,31.99
2023-02-15T04:00:46.013Z,8.86
2023-02-15T04:01:30.501Z,3.64
2023-02-15T04:02:15.656Z,3.57
2023-02-15T04:03:00.639Z,3.57
2023-02-15T04:03:46.258Z,3.53
2023-02-15T04:04:31.026Z,1.70
2023-02-15T04:05:16.006Z,1.78
2023-02-15T04:06:01.452Z,2.51
2023-02-15T04:06:46.609Z,31.99
2023-02-15T04:07:30.921Z,4.46
2023-02-15T04:08:15.992Z,8.46
2023-02-15T04:09:00.887Z,5.41
2023-02-15T04:09:46.555Z,4.24
2023-02-15T04:10:30.849Z,7.47
2023-02-15T04:11:16.113Z,16.52
2023-02-15T04:12:01.174Z,6.53
2023-02-15T04:12:46.533Z,12.36
2023-02-15T04:13:31.171Z,8.75
2023-02-15T04:14:16.127Z,19.73
2023-02-15T04:15:01.088Z,12.36
2023-02-15T04:15:46.353Z,8.64
2023-02-15T04:16:31.351Z,5.35
2023-02-15T04:17:16.510Z,36.99
2023-02-15T04:18:01.352Z,37.99
2023-02-15T04:18:46.871Z,4.46
2023-02-15T04:19:31.324Z,12.33
2023-02-15T04:20:16.569Z,4.04
2023-02-15T04:21:01.842Z,4.93
2023-02-15T04:21:50.714Z,4.93
2023-02-15T04:22:32.060Z,39.99
2023-02-15T04:23:16.906Z,37.99
2023-02-15T04:24:01.766Z,37.99
2023-02-15T04:24:46.760Z,3.57
2023-02-15T04:25:31.562Z,40.99
2023-02-15T04:26:16.957Z,43.99
2023-02-15T04:27:02.183Z,43.99
2023-02-15T04:27:47.094Z,47.99
2023-02-15T04:28:31.988Z,39.99
2023-02-15T04:29:17.293Z,20.00
2023-02-15T04:30:01.931Z,36.99
2023-02-15T04:30:47.123Z,43.99
2023-02-15T04:31:32.615Z,45.99
2023-02-15T04:32:17.202Z,43.99
2023-02-15T04:33:02.228Z,43.99
2023-02-15T04:33:47.377Z,43.99
2023-02-15T04:34:32.942Z,43.99
2023-02-15T04:35:17.736Z,45.98
2023-02-15T04:36:02.905Z,42.99
2023-02-15T04:36:47.513Z,43.98
2023-02-15T04:37:33.010Z,46.99
2023-02-15T04:38:17.748Z,46.99
2023-02-15T04:39:02.258Z,46.99
2023-02-15T04:39:48.251Z,46.99
2023-02-15T04:40:32.740Z,43.99
2023-02-15T04:41:17.737Z,42.99
2023-02-15T04:42:02.957Z,43.99
2023-02-15T04:42:47.604Z,41.99
2023-02-15T04:43:32.817Z,42.99
2023-02-15T04:44:17.879Z,45.99
2023-02-15T04:45:02.944Z,45.99
2023-02-15T04:45:48.152Z,46.98
2023-02-15T04:46:33.026Z,45.99
2023-02-15T04:47:18.451Z,45.98
2023-02-15T04:48:03.425Z,45.99
2023-02-15T04:48:48.035Z,43.99
2023-02-15T04:49:32.974Z,40.99
2023-02-15T04:50:18.369Z,45.99
2023-02-15T04:51:03.373Z,43.99
2023-02-15T04:51:48.244Z,43.99
2023-02-15T04:52:33.744Z,45.99
2023-02-15T04:53:18.811Z,47.99
2023-02-15T04:54:03.605Z,47.99
2023-02-15T04:54:48.823Z,48.99
2023-02-15T04:55:33.716Z,46.99
2023-02-15T04:56:18.747Z,48.99
2023-02-15T04:57:04.023Z,48.99
2023-02-15T04:57:48.977Z,48.99
2023-02-15T04:58:34.561Z,48.98
2023-02-15T04:59:18.792Z,44.99
2023-02-15T05:00:03.677Z,42.99
2023-02-15T05:00:48.925Z,41.99
2023-02-15T05:01:34.059Z,41.99
2023-02-15T05:02:19.276Z,43.99
2023-02-15T05:03:04.283Z,43.98
2023-02-15T05:03:49.255Z,45.99
2023-02-15T05:04:34.375Z,45.99
2023-02-15T05:05:19.192Z,44.99
2023-02-15T05:06:04.344Z,44.99
2023-02-15T05:06:49.253Z,44.99
2023-02-15T05:07:34.503Z,46.99
2023-02-15T05:08:19.260Z,47.99
2023-02-15T05:09:04.654Z,46.99
2023-02-15T05:09:49.963Z,46.99
2023-02-15T05:10:34.285Z,48.99
2023-02-15T05:11:19.594Z,48.99
2023-02-15T05:12:04.546Z,48.99
2023-02-15T05:12:49.696Z,49.99
2023-02-15T05:13:34.817Z,49.99
2023-02-15T05:14:19.863Z,48.99
2023-02-15T05:15:04.962Z,49.99
2023-02-15T05:15:49.915Z,49.99
2023-02-15T05:16:35.303Z,48.99
2023-02-15T05:17:19.956Z,46.99
2023-02-15T05:18:05.273Z,46.99
2023-02-15T05:18:50.043Z,47.98
2023-02-15T05:19:35.200Z,48.99
2023-02-15T05:20:20.066Z,48.99
2023-02-15T05:21:04.884Z,47.99
2023-02-15T05:21:50.428Z,48.99
2023-02-15T05:22:35.134Z,48.99
2023-02-15T05:23:20.595Z,48.99
2023-02-15T05:24:05.537Z,48.99
2023-02-15T05:24:50.596Z,48.98
2023-02-15T05:25:35.557Z,48.99
2023-02-15T05:26:20.850Z,48.98
2023-02-15T05:27:05.519Z,46.99
2023-02-15T05:27:50.544Z,47.98
2023-02-15T05:28:35.788Z,48.99
2023-02-15T05:29:20.840Z,47.99
2023-02-15T05:30:05.848Z,47.99
2023-02-15T05:30:51.057Z,48.99
2023-02-15T05:31:36.351Z,46.99
2023-02-15T05:32:21.205Z,47.98
2023-02-15T05:33:06.220Z,44.99
2023-02-15T05:33:51.089Z,42.99
2023-02-15T05:34:36.245Z,45.99
2023-02-15T05:35:21.195Z,46.99
2023-02-15T05:36:06.589Z,46.99
2023-02-15T05:36:51.011Z,47.99
2023-02-15T05:37:37.279Z,47.99
2023-02-15T05:38:21.651Z,48.99
2023-02-15T05:39:06.715Z,47.99
2023-02-15T05:39:51.414Z,49.99
2023-02-15T05:40:36.712Z,48.99
2023-02-15T05:41:21.771Z,47.99
2023-02-15T05:42:06.912Z,47.99
2023-02-15T05:42:52.340Z,47.99
2023-02-15T05:43:37.185Z,47.98
2023-02-15T05:44:22.223Z,43.99
2023-02-15T05:45:07.122Z,46.99
2023-02-15T05:45:51.919Z,47.99
2023-02-15T05:46:37.114Z,49.99
2023-02-15T05:47:22.355Z,46.99
2023-02-15T05:48:07.246Z,47.99
2023-02-15T05:48:52.264Z,47.99
2023-02-15T05:49:37.475Z,46.99
2023-02-15T05:50:22.420Z,46.99
2023-02-15T05:51:07.477Z,45.99
2023-02-15T05:51:52.426Z,47.99
2023-02-15T05:52:37.396Z,47.99
2023-02-15T05:53:22.770Z,47.99
2023-02-15T05:54:07.707Z,46.99
2023-02-15T05:54:52.656Z,47.99
2023-02-15T05:55:37.887Z,47.99
2023-02-15T05:56:22.985Z,47.99
2023-02-15T05:57:07.929Z,45.99
2023-02-15T05:57:52.889Z,45.99
2023-02-15T05:58:38.009Z,46.99
2023-02-15T05:59:22.870Z,45.99
2023-02-15T06:00:08.368Z,46.99
2023-02-15T06:00:53.158Z,46.99
2023-02-15T06:01:38.278Z,48.99
2023-02-15T06:02:23.422Z,49.99
2023-02-15T06:03:08.866Z,49.99
2023-02-15T06:03:53.409Z,49.99
2023-02-15T06:04:38.563Z,46.99
2023-02-15T06:05:23.332Z,46.99
2023-02-15T06:06:08.415Z,46.99
2023-02-15T06:06:53.359Z,46.99
2023-02-15T06:07:38.308Z,48.99
2023-02-15T06:08:23.918Z,49.97
2023-02-15T06:09:08.427Z,49.97
2023-02-15T06:09:53.688Z,46.99
2023-02-15T06:10:38.511Z,39.99
2023-02-15T06:11:23.944Z,42.99
2023-02-15T06:12:08.804Z,49.99
2023-02-15T06:12:54.002Z,47.98
2023-02-15T06:13:39.218Z,51.99
2023-02-15T06:14:24.371Z,47.98
2023-02-15T06:15:08.859Z,49.97
2023-02-15T06:15:53.912Z,49.99
2023-02-15T06:16:39.374Z,48.99
2023-02-15T06:17:24.008Z,48.99
2023-02-15T06:18:09.095Z,50.99
2023-02-15T06:18:53.927Z,47.99
2023-02-15T06:19:38.933Z,50.99
2023-02-15T06:20:24.298Z,48.99
2023-02-15T06:21:09.459Z,50.99
2023-02-15T06:21:54.077Z,51.99
2023-02-15T06:22:39.335Z,49.99
2023-02-15T06:23:24.382Z,51.99
2023-02-15T06:24:09.214Z,48.99
2023-02-15T06:24:54.341Z,51.99
2023-02-15T06:25:40.122Z,50.99
2023-02-15T06:26:25.265Z,49.99
2023-02-15T06:27:09.279Z,51.97
2023-02-15T06:27:54.261Z,49.99
2023-02-15T06:28:39.869Z,50.99
2023-02-15T06:29:24.772Z,50.99
2023-02-15T06:30:10.232Z,47.99
2023-02-15T06:30:56.549Z,15.87
2023-02-15T06:31:40.342Z,50.99
2023-02-15T06:32:25.198Z,49.99
2023-02-15T06:33:10.168Z,49.99
2023-02-15T06:33:55.036Z,47.99
2023-02-15T06:34:40.280Z,50.99
2023-02-15T06:35:25.155Z,50.99
2023-02-15T06:36:10.673Z,50.99
2023-02-15T06:36:55.174Z,50.98
2023-02-15T06:37:40.426Z,50.98
2023-02-15T06:38:25.831Z,53.99
2023-02-15T06:39:10.812Z,53.99
2023-02-15T06:39:57.847Z,53.99
2023-02-15T06:40:41.112Z,53.99
2023-02-15T06:41:25.992Z,53.99
2023-02-15T06:42:10.465Z,49.99
2023-02-15T06:42:55.455Z,52.99
2023-02-15T06:43:41.084Z,55.99
2023-02-15T06:44:26.168Z,54.99
2023-02-15T06:45:10.969Z,55.99
2023-02-15T06:45:56.176Z,54.99
2023-02-15T06:46:41.202Z,55.99
2023-02-15T06:47:26.444Z,54.98
2023-02-15T06:48:11.124Z,56.99
2023-02-15T06:48:55.693Z,52.98
2023-02-15T06:49:41.070Z,53.99
2023-02-15T06:50:26.117Z,55.99
2023-02-15T06:51:11.177Z,54.99
2023-02-15T06:51:56.020Z,54.99
2023-02-15T06:52:41.746Z,52.99
2023-02-15T06:53:27.058Z,51.99
2023-02-15T06:54:12.171Z,50.99
2023-02-15T06:54:56.473Z,48.99
2023-02-15T06:55:41.633Z,52.99
2023-02-15T06:56:27.061Z,53.99
2023-02-15T06:57:12.750Z,55.99
2023-02-15T06:57:56.708Z,51.99
2023-02-15T06:58:41.862Z,55.99
2023-02-15T06:59:26.902Z,57.99
2023-02-15T07:00:12.712Z,57.99
2023-02-15T07:00:56.713Z,53.99
2023-02-15T07:01:42.323Z,54.99
2023-02-15T07:02:27.173Z,51.99
2023-02-15T07:03:12.333Z,51.99
2023-02-15T07:03:57.767Z,52.99
2023-02-15T07:04:42.654Z,56.99
2023-02-15T07:05:27.144Z,56.99
2023-02-15T07:06:12.298Z,54.98
2023-02-15T07:06:57.608Z,54.99
2023-02-15T07:07:42.310Z,56.98
2023-02-15T07:08:28.104Z,55.99
2023-02-15T07:09:13.138Z,55.99
2023-02-15T07:09:57.225Z,55.99
2023-02-15T07:10:42.853Z,46.99
2023-02-15T07:11:27.861Z,44.99
2023-02-15T07:12:12.955Z,45.99
2023-02-15T07:12:57.911Z,49.99
2023-02-15T07:13:43.237Z,49.99
2023-02-15T07:14:29.048Z,38.99
2023-02-15T07:15:13.602Z,38.99
2023-02-15T07:15:58.358Z,38.99
2023-02-15T07:16:43.939Z,38.99
2023-02-15T07:17:35.367Z,41.99
2023-02-15T07:18:13.536Z,37.99
2023-02-15T07:18:58.253Z,46.99
2023-02-15T07:19:43.824Z,38.99
2023-02-15T07:20:28.160Z,35.99
2023-02-15T07:21:13.417Z,35.99
2023-02-15T07:21:58.499Z,38.99
2023-02-15T07:22:44.309Z,38.99
2023-02-15T07:23:29.107Z,38.99
2023-02-15T07:24:13.873Z,39.99
2023-02-15T07:24:58.955Z,38.99
2023-02-15T07:25:44.376Z,38.99
2023-02-15T07:26:29.200Z,38.99
2023-02-15T07:27:14.715Z,38.99
2023-02-15T07:27:59.493Z,38.99
2023-02-15T07:28:44.803Z,38.99
2023-02-15T07:29:29.289Z,38.99
2023-02-15T07:30:14.874Z,38.99
2023-02-15T07:30:59.481Z,38.99
2023-02-15T07:31:46.469Z,38.99
2023-02-15T07:32:29.856Z,38.99
2023-02-15T07:33:14.538Z,38.99
2023-02-15T07:34:02.234Z,38.99
2023-02-15T07:34:45.612Z,38.99
2023-02-15T07:35:30.547Z,38.99
2023-02-15T07:36:15.171Z,38.99
2023-02-15T07:36:59.889Z,38.99
2023-02-15T07:37:45.141Z,38.99
2023-02-15T07:38:30.451Z,38.99
2023-02-15T07:39:15.298Z,38.99
2023-02-15T07:40:00.116Z,38.99
2023-02-15T07:40:45.117Z,38.99
2023-02-15T07:41:31.945Z,38.99
2023-02-15T07:42:17.078Z,38.99
2023-02-15T07:43:00.369Z,38.99
2023-02-15T07:43:47.860Z,38.99
2023-02-15T07:44:32.364Z,38.99
2023-02-15T07:45:17.587Z,38.99
2023-02-15T07:46:02.860Z,38.99
2023-02-15T07:46:47.802Z,38.99
2023-02-15T07:47:32.172Z,38.99
2023-02-15T07:48:15.602Z,38.99
2023-02-15T07:49:02.713Z,38.99
2023-02-15T07:49:45.965Z,38.99
2023-02-15T07:50:30.911Z,38.99
2023-02-15T07:51:15.787Z,38.99
2023-02-15T07:52:00.774Z,38.99
2023-02-15T07:52:45.931Z,38.99
2023-02-15T07:53:30.641Z,3.34
2023-02-15T07:54:15.919Z,2.51
2023-02-15T07:55:00.877Z,3.29
2023-02-15T07:55:46.435Z,2.54
2023-02-15T07:56:32.702Z,26.99
2023-02-15T07:57:15.889Z,3.34
2023-02-15T07:58:00.887Z,32.99
2023-02-15T07:58:47.070Z,3.29
2023-02-15T07:59:31.301Z,3.44
2023-02-15T08:00:16.376Z,3.34
2023-02-15T08:01:01.364Z,2.47
2023-02-15T08:01:47.124Z,2.47
2023-02-15T08:02:31.748Z,2.42
2023-02-15T08:03:16.389Z,3.34
2023-02-15T08:04:01.993Z,15.27
2023-02-15T08:04:46.603Z,1.52
2023-02-15T08:05:31.442Z,1.62
2023-02-15T08:06:18.772Z,1.62
2023-02-15T08:07:03.735Z,1.62
2023-02-15T08:07:50.716Z,1.62
2023-02-15T08:08:32.800Z,1.62
2023-02-15T08:09:16.626Z,2.51
2023-02-15T08:10:01.687Z,3.39
2023-02-15T08:10:47.258Z,4.55
2023-02-15T08:11:31.789Z,28.99
2023-02-15T08:12:18.995Z,28.99
2023-02-15T08:13:02.126Z,31.99
2023-02-15T08:13:49.328Z,31.99
2023-02-15T08:14:34.385Z,31.99
2023-02-15T08:15:18.022Z,31.99
2023-02-15T08:16:02.720Z,31.99
2023-02-15T08:16:47.302Z,27.99
2023-02-15T08:17:32.471Z,30.99
2023-02-15T08:18:19.767Z,30.99
2023-02-15T08:19:02.770Z,30.99
2023-02-15T08:19:49.796Z,30.99
2023-02-15T08:20:32.784Z,28.99
2023-02-15T08:21:17.850Z,31.99
2023-02-15T08:22:02.591Z,31.99
2023-02-15T08:22:48.094Z,32.99
2023-02-15T08:23:33.010Z,33.99
2023-02-15T08:24:18.021Z,32.99
2023-02-15T08:25:03.134Z,32.99
2023-02-15T08:25:48.586Z,32.99
2023-02-15T08:26:33.503Z,34.99
2023-02-15T08:27:18.305Z,34.99
2023-02-15T08:28:03.286Z,34.99
2023-02-15T08:28:48.105Z,39.99
2023-02-15T08:29:33.696Z,37.99
2023-02-15T08:30:18.739Z,38.99
2023-02-15T08:31:03.715Z,39.99
2023-02-15T08:31:48.842Z,39.99
2023-02-15T08:32:33.298Z,40.99
2023-02-15T08:33:18.641Z,40.99
2023-02-15T08:34:03.948Z,35.99
2023-02-15T08:34:48.753Z,37.99
2023-02-15T08:35:33.869Z,37.99
2023-02-15T08:36:18.872Z,36.99
2023-02-15T08:37:03.923Z,38.99
2023-02-15T08:37:49.125Z,38.99
2023-02-15T08:38:33.839Z,41.99
2023-02-15T08:39:19.349Z,41.99
2023-02-15T08:40:04.573Z,40.99
2023-02-15T08:40:48.921Z,42.99
2023-02-15T08:41:34.511Z,42.99
2023-02-15T08:42:19.580Z,38.99
2023-02-15T08:43:04.278Z,39.99
2023-02-15T08:43:49.261Z,37.99
2023-02-15T08:44:35.177Z,37.99
2023-02-15T08:45:20.374Z,37.99
2023-02-15T08:46:05.126Z,37.99
2023-02-15T08:46:50.319Z,37.99
2023-02-15T08:47:34.951Z,37.99
2023-02-15T08:48:20.185Z,37.99
2023-02-15T08:49:04.960Z,37.99
2023-02-15T08:49:49.928Z,43.99
2023-02-15T08:50:35.054Z,41.99
2023-02-15T08:51:20.355Z,41.99
2023-02-15T08:52:05.387Z,41.99
2023-02-15T08:52:50.124Z,39.99
2023-02-15T08:53:35.623Z,39.99
2023-02-15T08:54:20.650Z,39.99
2023-02-15T08:55:05.598Z,39.99
2023-02-15T08:55:50.643Z,39.99
2023-02-15T08:56:35.877Z,39.99
2023-02-15T08:57:23.101Z,39.99
2023-02-15T08:58:05.838Z,39.99
2023-02-15T08:58:50.868Z,39.99
2023-02-15T08:59:40.785Z,39.99
2023-02-15T09:00:25.268Z,39.99
2023-02-15T09:01:08.221Z,39.99
2023-02-15T09:01:53.154Z,39.99
2023-02-15T09:02:36.427Z,39.99
2023-02-15T09:03:21.517Z,39.99
2023-02-15T09:04:08.309Z,39.99
2023-02-15T09:04:53.374Z,39.99
2023-02-15T09:05:38.215Z,39.99
2023-02-15T09:06:21.796Z,39.99
2023-02-15T09:07:10.180Z,39.99
2023-02-15T09:07:51.716Z,39.99
2023-02-15T09:08:36.613Z,39.99
2023-02-15T09:09:21.587Z,39.99
2023-02-15T09:10:07.105Z,39.99
2023-02-15T09:10:53.982Z,39.99
2023-02-15T09:11:38.705Z,39.99
2023-02-15T09:12:25.467Z,39.99
2023-02-15T09:13:06.803Z,34.98
2023-02-15T09:13:54.063Z,34.98
2023-02-15T09:14:37.107Z,34.98
2023-02-15T09:15:23.588Z,34.98
2023-02-15T09:16:07.115Z,34.98
2023-02-15T09:16:54.685Z,34.98
2023-02-15T09:17:36.764Z,31.99
2023-02-15T09:18:22.667Z,31.99
2023-02-15T09:19:07.429Z,31.99
2023-02-15T09:19:52.779Z,31.99
2023-02-15T09:20:37.517Z,31.99
2023-02-15T09:21:22.722Z,31.99
2023-02-15T09:22:07.454Z,31.99
2023-02-15T09:22:54.292Z,31.99
2023-02-15T09:23:38.068Z,31.99
2023-02-15T09:24:22.585Z,31.99
2023-02-15T09:25:08.782Z,31.99
2023-02-15T09:25:52.829Z,31.99
2023-02-15T09:26:37.947Z,31.99
2023-02-15T09:27:23.010Z,31.99
2023-02-15T09:28:07.549Z,31.99
2023-02-15T09:28:55.143Z,31.99
2023-02-15T09:29:40.929Z,31.99
2023-02-15T09:30:23.305Z,31.99
2023-02-15T09:31:08.081Z,31.99
2023-02-15T09:31:54.472Z,1.62
2023-02-15T09:32:38.133Z,26.99
2023-02-15T09:33:23.350Z,8.80
2023-02-15T09:34:07.906Z,8.80
2023-02-15T09:34:53.069Z,27.99
2023-02-15T09:35:38.429Z,27.99
2023-02-15T09:36:23.183Z,27.99
2023-02-15T09:37:08.312Z,26.99
2023-02-15T09:37:53.392Z,28.99
2023-02-15T09:38:38.432Z,27.99
2023-02-15T09:39:23.626Z,21.99
2023-02-15T09:40:08.538Z,22.99
2023-02-15T09:40:53.565Z,20.99
2023-02-15T09:41:38.666Z,17.99
2023-02-15T09:42:23.742Z,3.61